createdAt,value
2022-09-20T00:01:33.678Z,5.84
2022-09-20T00:04:04.536Z,5.78
2022-09-20T00:06:32.937Z,5.75
2022-09-20T00:09:00.761Z,5.72
2022-09-20T00:11:32.166Z,5.71
2022-09-20T00:14:02.135Z,5.67
2022-09-20T00:16:34.327Z,5.68
2022-09-20T00:19:04.518Z,5.69
2022-09-20T00:21:35.647Z,5.68
2022-09-20T00:24:03.753Z,5.64
2022-09-20T00:26:30.883Z,5.60
2022-09-20T00:28:59.119Z,5.55
2022-09-20T00:31:26.952Z,5.53
2022-09-20T00:33:56.277Z,5.51
2022-09-20T00:36:23.920Z,5.51
2022-09-20T00:39:00.504Z,5.48
2022-09-20T00:41:30.912Z,5.43
2022-09-20T00:43:59.639Z,5.40
2022-09-20T00:46:37.612Z,5.40
2022-09-20T00:49:27.905Z,5.35
2022-09-20T00:52:02.257Z,5.34
2022-09-20T00:54:31.593Z,5.31
2022-09-20T00:56:58.799Z,5.31
2022-09-20T00:59:36.303Z,5.30
2022-09-20T01:02:12.389Z,5.27
2022-09-20T01:04:43.259Z,5.25
2022-09-20T01:07:15.574Z,5.20
2022-09-20T01:09:42.815Z,5.19
2022-09-20T01:12:16.213Z,5.08
2022-09-20T01:14:47.245Z,5.12
2022-09-20T01:17:16.091Z,5.13
2022-09-20T01:20:06.233Z,5.13
2022-09-20T01:23:19.717Z,5.09
2022-09-20T01:26:07.915Z,5.05
2022-09-20T01:28:36.466Z,5.03
2022-09-20T01:31:15.667Z,5.04
2022-09-20T01:34:01.927Z,5.04
2022-09-20T01:36:49.453Z,5.05
2022-09-20T01:39:49.138Z,5.11
2022-09-20T01:42:16.638Z,5.05
2022-09-20T01:45:40.814Z,5.01
2022-09-20T01:48:18.982Z,4.96
2022-09-20T01:51:23.412Z,4.96
2022-09-20T01:54:47.649Z,4.89
2022-09-20T01:57:39.113Z,4.86
2022-09-20T02:00:26.280Z,4.87
2022-09-20T02:03:18.216Z,4.84
2022-09-20T02:06:08.552Z,4.74
2022-09-20T02:09:06.260Z,4.79
2022-09-20T02:12:37.145Z,4.78
2022-09-20T02:15:33.753Z,4.74
2022-09-20T02:18:12.921Z,4.70
2022-09-20T02:21:08.571Z,4.65
2022-09-20T02:24:17.971Z,4.61
2022-09-20T02:27:12.085Z,4.56
2022-09-20T02:30:05.062Z,4.55
2022-09-20T02:33:09.110Z,4.55
2022-09-20T02:36:30.783Z,4.52
2022-09-20T02:39:36.307Z,4.45
2022-09-20T02:42:15.657Z,4.42
2022-09-20T02:45:16.163Z,4.41
2022-09-20T02:47:44.419Z,4.40
2022-09-20T02:51:00.399Z,4.34
2022-09-20T02:54:20.122Z,4.34
2022-09-20T02:57:14.125Z,4.35
2022-09-20T02:59:54.793Z,4.30
2022-09-20T03:02:59.043Z,4.30
2022-09-20T03:06:05.025Z,4.26
2022-09-20T03:08:54.107Z,4.20
2022-09-20T03:12:26.645Z,4.16
2022-09-20T03:15:19.826Z,4.11
2022-09-20T03:18:31.376Z,4.09
2022-09-20T03:21:27.989Z,4.09
2022-09-20T03:24:19.406Z,4.07
2022-09-20T03:27:25.944Z,3.99
2022-09-20T03:30:35.345Z,3.97
2022-09-20T03:33:40.443Z,3.94
2022-09-20T03:36:34.648Z,3.91
2022-09-20T03:39:37.774Z,3.90
2022-09-20T03:42:23.173Z,3.90
2022-09-20T03:45:04.025Z,3.89
2022-09-20T03:48:11.375Z,3.86
2022-09-20T03:51:12.749Z,3.84
2022-09-20T03:53:58.854Z,3.80
2022-09-20T03:56:45.920Z,3.81
2022-09-20T03:59:31.599Z,3.76
2022-09-20T04:02:08.494Z,3.79
2022-09-20T04:04:55.519Z,3.80
2022-09-20T04:07:31.821Z,3.81
2022-09-20T04:10:13.376Z,3.80
2022-09-20T04:12:50.199Z,3.86
2022-09-20T04:15:32.155Z,3.87
2022-09-20T04:18:38.519Z,3.89
2022-09-20T04:21:11.903Z,3.86
2022-09-20T04:23:55.332Z,3.86
2022-09-20T04:26:31.181Z,3.83
2022-09-20T04:29:36.144Z,3.82
2022-09-20T04:32:09.545Z,3.79
2022-09-20T04:34:49.861Z,3.74
2022-09-20T04:37:28.612Z,3.82
2022-09-20T04:40:20.691Z,3.77
2022-09-20T04:42:54.455Z,3.79
2022-09-20T04:45:58.179Z,3.77
2022-09-20T04:48:50.587Z,3.75
2022-09-20T04:51:18.144Z,3.74
2022-09-20T04:54:18.103Z,3.72
2022-09-20T04:57:06.674Z,3.72
2022-09-20T05:00:01.589Z,3.71
2022-09-20T05:03:09.774Z,3.76
2022-09-20T05:05:58.543Z,3.78
2022-09-20T05:08:58.846Z,3.80
2022-09-20T05:11:35.664Z,3.74
2022-09-20T05:14:15.313Z,3.75
2022-09-20T05:17:15.943Z,3.74
2022-09-20T05:19:49.391Z,3.70
2022-09-20T05:22:31.750Z,3.69
2022-09-20T05:25:19.348Z,3.71
2022-09-20T05:27:51.872Z,3.72
2022-09-20T05:30:41.208Z,3.72
2022-09-20T05:33:37.358Z,3.63
2022-09-20T05:36:46.701Z,3.66
2022-09-20T05:39:26.460Z,3.62
2022-09-20T05:42:05.428Z,3.60
2022-09-20T05:45:13.450Z,3.60
2022-09-20T05:47:43.783Z,3.59
2022-09-20T05:50:28.675Z,3.60
2022-09-20T05:53:19.098Z,3.59
2022-09-20T05:56:16.571Z,3.55
2022-09-20T05:58:56.159Z,3.57
2022-09-20T06:01:34.111Z,3.57
2022-09-20T06:04:15.707Z,3.57
2022-09-20T06:07:06.471Z,3.56
2022-09-20T06:09:39.920Z,3.60
2022-09-20T06:12:16.754Z,3.65
2022-09-20T06:15:02.554Z,3.70
2022-09-20T06:17:57.140Z,3.72
2022-09-20T06:20:48.896Z,3.83
2022-09-20T06:23:16.856Z,3.88
2022-09-20T06:26:00.730Z,3.98
2022-09-20T06:28:33.635Z,4.04
2022-09-20T06:31:02.455Z,4.14
2022-09-20T06:33:31.238Z,4.21
2022-09-20T06:36:16.879Z,4.31
2022-09-20T06:39:15.939Z,4.38
2022-09-20T06:41:44.962Z,4.47
2022-09-20T06:44:12.846Z,4.59
2022-09-20T06:46:40.442Z,4.68
2022-09-20T06:49:08.304Z,4.77
2022-09-20T06:51:38.178Z,4.87
2022-09-20T06:54:08.020Z,4.96
2022-09-20T06:56:36.416Z,5.07
2022-09-20T06:59:07.038Z,5.18
2022-09-20T07:01:34.828Z,5.28
2022-09-20T07:04:03.313Z,5.39
2022-09-20T07:06:31.006Z,5.47
2022-09-20T07:08:58.756Z,5.61
2022-09-20T07:11:26.393Z,5.70
2022-09-20T07:13:55.779Z,5.81
2022-09-20T07:16:23.486Z,5.94
2022-09-20T07:18:51.310Z,6.02
2022-09-20T07:21:20.413Z,6.13
2022-09-20T07:23:48.369Z,6.21
2022-09-20T07:26:27.923Z,6.30
2022-09-20T07:28:56.411Z,6.41
2022-09-20T07:31:26.068Z,6.49
2022-09-20T07:33:53.861Z,6.58
2022-09-20T07:36:21.575Z,6.70
2022-09-20T07:38:50.588Z,6.79
2022-09-20T07:41:19.348Z,6.90
2022-09-20T07:43:47.389Z,6.97
2022-09-20T07:46:14.965Z,7.06
2022-09-20T07:48:42.589Z,7.13
2022-09-20T07:51:12.994Z,7.22
2022-09-20T07:53:40.855Z,7.30
2022-09-20T07:56:15.497Z,7.34
2022-09-20T07:58:44.373Z,7.44
2022-09-20T08:01:14.453Z,7.52
2022-09-20T08:03:42.264Z,7.62
2022-09-20T08:06:12.613Z,7.72
2022-09-20T08:08:41.269Z,7.78
2022-09-20T08:11:11.633Z,7.90
2022-09-20T08:14:16.704Z,8.01
2022-09-20T08:16:41.654Z,8.16
2022-09-20T08:19:09.890Z,8.26
2022-09-20T08:21:37.731Z,8.35
2022-09-20T08:24:05.454Z,8.50
2022-09-20T08:26:33.111Z,8.61
2022-09-20T08:29:00.830Z,8.67
2022-09-20T08:31:31.603Z,8.74
2022-09-20T08:33:59.209Z,8.84
2022-09-20T08:36:28.984Z,8.94
2022-09-20T08:42:12.139Z,9.18
2022-09-20T08:44:58.645Z,9.31
2022-09-20T08:47:37.353Z,9.44
2022-09-20T08:50:11.385Z,9.52
2022-09-20T08:52:39.800Z,9.60
2022-09-20T08:55:28.472Z,9.65
2022-09-20T08:58:00.270Z,9.77
2022-09-20T09:00:33.072Z,9.85
2022-09-20T09:03:13.519Z,10.00
2022-09-20T09:05:51.872Z,10.01
2022-09-20T09:08:21.643Z,10.12
2022-09-20T09:10:55.996Z,10.23
2022-09-20T09:13:31.829Z,10.33
2022-09-20T09:16:22.725Z,10.44
2022-09-20T09:18:52.389Z,10.47
2022-09-20T09:21:24.628Z,10.54
2022-09-20T09:24:14.551Z,10.61
2022-09-20T09:26:43.430Z,10.66
2022-09-20T09:29:20.884Z,10.74
2022-09-20T09:31:53.203Z,10.81
2022-09-20T09:34:23.810Z,10.88
2022-09-20T09:36:51.818Z,10.94
2022-09-20T09:39:33.963Z,11.02
2022-09-20T09:42:19.288Z,11.13
2022-09-20T09:44:46.916Z,11.20
2022-09-20T09:47:27.645Z,11.32
2022-09-20T09:50:02.689Z,11.38
2022-09-20T09:52:32.823Z,11.42
2022-09-20T09:55:05.494Z,11.46
2022-09-20T09:58:05.954Z,11.59
2022-09-20T10:00:34.443Z,11.70
2022-09-20T10:03:04.415Z,11.80
2022-09-20T10:05:40.527Z,11.92
2022-09-20T10:09:14.230Z,12.09
2022-09-20T10:11:59.794Z,12.24
2022-09-20T10:15:22.647Z,12.40
2022-09-20T10:18:47.215Z,12.57
2022-09-20T10:21:54.452Z,12.60
2022-09-20T10:25:03.191Z,12.68
2022-09-20T10:27:58.619Z,12.79
2022-09-20T10:31:03.775Z,13.00
2022-09-20T10:34:06.298Z,13.38
2022-09-20T10:37:01.138Z,14.06
2022-09-20T10:39:39.376Z,14.83
2022-09-20T10:42:50.087Z,15.76
2022-09-20T10:46:08.739Z,16.40
2022-09-20T10:49:15.396Z,17.47
2022-09-20T10:52:09.174Z,18.22
2022-09-20T10:55:00.241Z,18.74
2022-09-20T10:58:11.419Z,18.83
2022-09-20T11:01:17.238Z,18.68
2022-09-20T11:04:07.853Z,18.38
2022-09-20T11:06:55.451Z,17.97
2022-09-20T11:09:37.248Z,17.53
2022-09-20T11:12:29.602Z,17.17
2022-09-20T11:15:14.646Z,16.86
2022-09-20T11:17:55.555Z,16.56
2022-09-20T11:20:41.447Z,16.19
2022-09-20T11:23:22.562Z,15.90
2022-09-20T11:25:58.584Z,15.68
2022-09-20T11:28:37.696Z,15.54
2022-09-20T11:31:24.928Z,15.59
2022-09-20T11:34:03.495Z,16.15
2022-09-20T11:36:59.797Z,17.18
2022-09-20T11:39:45.915Z,17.87
2022-09-20T11:42:22.488Z,18.21
2022-09-20T11:44:50.717Z,18.49
2022-09-20T11:47:42.706Z,18.86
2022-09-20T11:50:51.322Z,19.09
2022-09-20T11:53:55.633Z,19.35
2022-09-20T11:56:27.796Z,19.36
2022-09-20T11:59:23.093Z,19.24
2022-09-20T12:01:57.648Z,18.85
2022-09-20T12:04:33.274Z,18.36
2022-09-20T12:07:27.003Z,17.84
2022-09-20T12:10:02.412Z,17.42
2022-09-20T12:12:40.002Z,17.11
2022-09-20T12:15:34.755Z,16.87
2022-09-20T12:18:27.627Z,16.88
2022-09-20T12:21:16.301Z,16.83
2022-09-20T12:24:17.091Z,16.55
2022-09-20T12:26:46.601Z,16.64
2022-09-20T12:29:25.890Z,16.60
2022-09-20T12:32:54.802Z,16.36
2022-09-20T12:35:37.077Z,16.36
2022-09-20T12:38:31.749Z,16.48
2022-09-20T12:41:14.010Z,16.56
2022-09-20T12:44:06.104Z,16.71
2022-09-20T12:46:50.832Z,16.85
2022-09-20T12:49:28.292Z,16.74
2022-09-20T12:51:55.670Z,16.75
2022-09-20T12:54:22.924Z,16.73
2022-09-20T12:56:50.098Z,16.86
2022-09-20T12:59:26.563Z,17.00
2022-09-20T13:01:53.737Z,17.09
2022-09-20T13:04:53.808Z,17.05
2022-09-20T13:07:47.974Z,17.13
2022-09-20T13:10:30.496Z,17.46
2022-09-20T13:13:15.478Z,17.71
2022-09-20T13:15:50.539Z,17.95
2022-09-20T13:18:20.143Z,18.07
2022-09-20T13:20:47.833Z,18.16
2022-09-20T13:23:25.108Z,18.15
2022-09-20T13:25:55.465Z,18.20
2022-09-20T13:28:35.053Z,18.11
2022-09-20T13:31:20.803Z,17.86
2022-09-20T13:33:48.865Z,17.38
2022-09-20T13:36:26.421Z,17.17
2022-09-20T13:38:56.996Z,17.12
2022-09-20T13:41:28.820Z,17.03
2022-09-20T13:43:56.359Z,17.03
2022-09-20T13:46:31.129Z,17.06
2022-09-20T13:49:17.716Z,17.23
2022-09-20T13:51:45.526Z,17.26
2022-09-20T13:54:27.945Z,17.27
2022-09-20T13:57:00.812Z,17.20
2022-09-20T13:59:40.538Z,17.06
2022-09-20T14:02:24.284Z,17.11
2022-09-20T14:04:55.742Z,17.33
2022-09-20T14:07:24.695Z,17.48
2022-09-20T14:09:52.581Z,17.66
2022-09-20T14:12:21.552Z,17.61
2022-09-20T14:14:51.021Z,17.70
2022-09-20T14:17:22.015Z,18.04
2022-09-20T14:19:53.321Z,18.22
2022-09-20T14:22:29.994Z,18.17
2022-09-20T14:25:14.135Z,18.04
2022-09-20T14:27:41.373Z,17.85
2022-09-20T14:30:31.981Z,17.50
2022-09-20T14:33:00.102Z,17.30
2022-09-20T14:35:27.634Z,17.10
2022-09-20T14:38:08.426Z,16.94
2022-09-20T14:40:42.940Z,16.84
2022-09-20T14:43:24.154Z,16.68
2022-09-20T14:46:01.871Z,16.53
2022-09-20T14:48:39.541Z,16.40
2022-09-20T14:51:17.635Z,16.22
2022-09-20T14:54:10.876Z,16.07
2022-09-20T14:56:48.553Z,15.94
2022-09-20T14:59:18.542Z,15.91
2022-09-20T15:02:02.591Z,15.83
2022-09-20T15:04:31.171Z,15.70
2022-09-20T15:07:07.383Z,15.69
2022-09-20T15:09:34.921Z,15.66
2022-09-20T15:12:13.095Z,15.61
2022-09-20T15:14:40.446Z,15.53
2022-09-20T15:19:41.400Z,15.50
2022-09-20T15:22:12.493Z,15.52
2022-09-20T15:24:39.999Z,15.47
2022-09-20T15:27:07.873Z,15.45
2022-09-20T15:29:34.997Z,15.41
2022-09-20T15:32:02.429Z,15.36
2022-09-20T15:34:29.572Z,15.35
2022-09-20T15:36:56.703Z,15.33
2022-09-20T15:39:23.868Z,15.37
2022-09-20T15:41:54.213Z,15.31
2022-09-20T15:44:21.590Z,15.30
2022-09-20T15:46:51.320Z,15.26
2022-09-20T15:49:19.048Z,15.18
2022-09-20T15:51:46.169Z,15.13
2022-09-20T15:54:15.209Z,15.06
2022-09-20T15:56:42.782Z,15.06
2022-09-20T15:59:12.105Z,15.03
2022-09-20T16:01:43.243Z,15.02
2022-09-20T16:04:19.640Z,15.04
2022-09-20T16:06:50.059Z,14.98
2022-09-20T16:09:18.507Z,14.94
2022-09-20T16:11:47.383Z,14.89
2022-09-20T16:14:15.267Z,14.82
2022-09-20T16:16:42.956Z,14.76
2022-09-20T16:19:11.673Z,14.72
2022-09-20T16:21:42.222Z,14.64
2022-09-20T16:24:10.143Z,14.57
2022-09-20T16:26:37.591Z,14.48
2022-09-20T16:29:05.918Z,14.46
2022-09-20T16:31:44.705Z,14.37
2022-09-20T16:34:21.904Z,14.25
2022-09-20T16:36:52.437Z,14.16
2022-09-20T16:39:21.765Z,14.07
2022-09-20T16:41:49.373Z,13.98
2022-09-20T16:44:16.665Z,13.89
2022-09-20T16:46:43.917Z,13.83
2022-09-20T16:49:12.209Z,13.76
2022-09-20T16:51:44.674Z,13.72
2022-09-20T16:54:17.951Z,13.63
2022-09-20T16:56:48.426Z,13.60
2022-09-20T16:59:19.174Z,13.53
2022-09-20T17:01:47.179Z,13.45
2022-09-20T17:04:15.502Z,13.35
2022-09-20T17:06:42.695Z,13.28
2022-09-20T17:09:10.405Z,13.18
2022-09-20T17:11:44.688Z,13.15
2022-09-20T17:14:14.177Z,13.11
2022-09-20T17:16:42.217Z,13.05
2022-09-20T17:19:14.493Z,12.97
2022-09-20T17:21:45.086Z,12.87
2022-09-20T17:24:12.767Z,12.84
2022-09-20T17:26:43.176Z,12.83
2022-09-20T17:29:14.181Z,12.80
2022-09-20T17:31:51.493Z,12.78
2022-09-20T17:34:21.058Z,12.71
2022-09-20T17:36:51.517Z,12.70
2022-09-20T17:39:19.247Z,12.63
2022-09-20T17:41:49.304Z,12.56
2022-09-20T17:44:17.597Z,12.50
2022-09-20T17:46:47.754Z,12.45
2022-09-20T17:49:21.189Z,12.40
2022-09-20T17:51:54.633Z,12.32
2022-09-20T17:54:23.707Z,12.28
2022-09-20T17:56:53.677Z,12.18
2022-09-20T17:59:21.436Z,12.15
2022-09-20T18:01:52.216Z,12.09
2022-09-20T18:04:20.111Z,12.02
2022-09-20T18:06:51.351Z,11.93
2022-09-20T18:09:22.623Z,11.89
2022-09-20T18:11:53.043Z,11.85
2022-09-20T18:14:25.497Z,11.77
2022-09-20T18:16:55.607Z,11.71
2022-09-20T18:19:23.054Z,11.64
2022-09-20T18:21:50.981Z,11.56
2022-09-20T18:24:18.162Z,11.48
2022-09-20T18:26:45.840Z,11.41
2022-09-20T18:29:17.061Z,11.40
2022-09-20T18:31:53.748Z,11.26
2022-09-20T18:34:26.784Z,11.29
2022-09-20T18:36:57.788Z,11.23
2022-09-20T18:39:28.427Z,11.16
2022-09-20T18:41:56.442Z,11.12
2022-09-20T18:44:24.429Z,11.07
2022-09-20T18:46:51.939Z,11.03
2022-09-20T18:49:19.125Z,11.00
2022-09-20T18:51:46.429Z,10.92
2022-09-20T18:54:14.293Z,10.87
2022-09-20T18:56:44.469Z,10.86
2022-09-20T18:59:24.354Z,10.79
2022-09-20T19:02:02.670Z,10.69
2022-09-20T19:05:03.214Z,10.62
2022-09-20T19:08:06.134Z,10.60
2022-09-20T19:10:48.409Z,10.50
2022-09-20T19:14:11.876Z,10.43
2022-09-20T19:16:39.108Z,10.38
2022-09-20T19:19:46.003Z,10.30
2022-09-20T19:22:31.547Z,10.24
2022-09-20T19:25:25.979Z,10.17
2022-09-20T19:27:53.486Z,10.11
2022-09-20T19:30:21.428Z,10.06
2022-09-20T19:32:49.127Z,10.01
2022-09-20T19:35:37.654Z,9.96
2022-09-20T19:38:13.844Z,9.93
2022-09-20T19:41:14.169Z,9.87
2022-09-20T19:43:56.296Z,9.81
2022-09-20T19:47:01.579Z,9.75
2022-09-20T19:50:00.801Z,9.73
2022-09-20T19:52:28.792Z,9.62
2022-09-20T19:54:56.760Z,9.59
2022-09-20T19:57:39.043Z,9.61
2022-09-20T20:00:09.374Z,9.59
2022-09-20T20:02:37.263Z,9.54
2022-09-20T20:05:05.112Z,9.52
2022-09-20T20:07:54.589Z,9.46
2022-09-20T20:10:30.555Z,9.43
2022-09-20T20:13:18.856Z,9.33
2022-09-20T20:15:58.672Z,9.29
2022-09-20T20:19:00.928Z,9.20
2022-09-20T20:21:50.249Z,9.19
2022-09-20T20:24:45.811Z,9.13
2022-09-20T20:27:13.066Z,9.10
2022-09-20T20:29:40.287Z,9.12
2022-09-20T20:32:07.711Z,9.09
2022-09-20T20:34:34.978Z,9.06
2022-09-20T20:37:02.365Z,9.06
2022-09-20T20:39:30.682Z,9.05
2022-09-20T20:42:03.165Z,9.02
2022-09-20T20:44:34.480Z,8.96
2022-09-20T20:47:04.040Z,8.96
2022-09-20T20:49:31.344Z,8.91
2022-09-20T20:51:59.145Z,8.86
2022-09-20T20:54:26.533Z,8.88
2022-09-20T20:56:53.667Z,8.88
2022-09-20T20:59:21.006Z,8.86
2022-09-20T21:01:48.356Z,8.83
2022-09-20T21:04:15.536Z,8.80
2022-09-20T21:06:43.035Z,8.80
2022-09-20T21:09:11.321Z,8.77
2022-09-20T21:11:41.225Z,8.72
2022-09-20T21:14:08.312Z,8.76
2022-09-20T21:16:39.165Z,8.73
2022-09-20T21:19:06.709Z,8.71
2022-09-20T21:21:37.895Z,8.67
2022-09-20T21:24:08.710Z,8.62
2022-09-20T21:26:37.668Z,8.65
2022-09-20T21:29:15.007Z,8.60
2022-09-20T21:31:45.583Z,8.59
2022-09-20T21:34:15.311Z,8.55
2022-09-20T21:36:43.975Z,8.47
2022-09-20T21:39:11.888Z,8.43
2022-09-20T21:41:39.997Z,8.39
2022-09-20T21:44:08.613Z,8.38
2022-09-20T21:46:42.022Z,8.35
2022-09-20T21:49:12.285Z,8.37
2022-09-20T21:51:42.118Z,8.31
2022-09-20T21:54:09.976Z,8.33
2022-09-20T21:56:39.659Z,8.36
2022-09-20T21:59:06.904Z,8.31
2022-09-20T22:01:38.796Z,8.30
2022-09-20T22:04:12.083Z,8.30
2022-09-20T22:06:43.065Z,8.30
2022-09-20T22:09:16.697Z,8.32
2022-09-20T22:11:48.916Z,8.30
2022-09-20T22:14:18.720Z,8.34
2022-09-20T22:16:48.421Z,8.31
2022-09-20T22:19:18.076Z,8.33
2022-09-20T22:21:48.682Z,8.31
2022-09-20T22:24:16.953Z,8.29
2022-09-20T22:26:51.486Z,8.31
2022-09-20T22:29:19.246Z,8.32
2022-09-20T22:31:48.282Z,8.32
2022-09-20T22:34:21.376Z,8.30
2022-09-20T22:36:49.333Z,8.27
2022-09-20T22:39:17.076Z,8.20
2022-09-20T22:41:44.863Z,8.26
2022-09-20T22:44:12.425Z,8.27
2022-09-20T22:46:40.187Z,8.27
2022-09-20T22:49:09.367Z,8.28
2022-09-20T22:51:37.820Z,8.30
2022-09-20T22:54:09.542Z,8.29
2022-09-20T22:56:38.344Z,8.29
2022-09-20T22:59:10.522Z,8.29
2022-09-20T23:01:41.850Z,8.27
2022-09-20T23:04:13.743Z,8.27
2022-09-20T23:06:46.017Z,8.27
2022-09-20T23:09:15.835Z,8.25
2022-09-20T23:11:43.862Z,8.20
2022-09-20T23:14:14.663Z,8.18
2022-09-20T23:16:42.988Z,8.15
2022-09-20T23:19:11.630Z,8.15
2022-09-20T23:21:41.093Z,8.11
2022-09-20T23:24:11.814Z,8.07
2022-09-20T23:26:41.295Z,8.06
2022-09-20T23:29:16.924Z,7.99
2022-09-20T23:31:46.923Z,7.96
2022-09-20T23:34:16.704Z,7.90
2022-09-20T23:36:45.384Z,7.88
2022-09-20T23:39:13.412Z,7.82
2022-09-20T23:41:41.377Z,7.79
2022-09-20T23:44:09.526Z,7.77
2022-09-20T23:46:37.639Z,7.74
2022-09-20T23:49:05.535Z,7.71
2022-09-20T23:51:32.880Z,7.64
2022-09-20T23:54:00.122Z,7.66
2022-09-20T23:56:27.296Z,7.62
2022-09-20T23:58:54.859Z,7.57
